Time;durP1;ratioP1;P1;durP2;ratioP2;P2;SDS_P1;SDS_P2;PMS_P1;PMS_P2;Temp;Humidity;BMP_temperature;BMP_pressure;BME280_temperature;BME280_humidity;BME280_pressure;Samples;Min_cycle;Max_cycle;Signal;HPM_P1;HPM_P2
2021/06/24 00:01:29;;;;;;;4.13;3.03;;;17.90;99.90;;;;;;5028175;28;20123;-73
2021/06/24 00:03:54;;;;;;;8.60;4.10;;;17.80;99.90;;;;;;5026645;28;20082;-75
2021/06/24 00:06:20;;;;;;;4.25;2.33;;;17.60;99.90;;;;;;5025844;28;20124;-74
2021/06/24 00:08:45;;;;;;;4.88;1.75;;;17.50;99.90;;;;;;5140707;22;20140;-73
2021/06/24 00:11:11;;;;;;;5.55;2.80;;;17.50;99.90;;;;;;5027827;28;20094;-73
2021/06/24 00:13:38;;;;;;;2.40;1.88;;;17.50;99.90;;;;;;5010967;28;20186;-73
2021/06/24 00:16:05;;;;;;;4.43;1.45;;;17.50;99.90;;;;;;5030479;28;20082;-73
2021/06/24 00:18:31;;;;;;;2.30;1.40;;;17.50;99.90;;;;;;5028229;28;20173;-73
2021/06/24 00:20:57;;;;;;;3.67;1.42;;;17.50;99.90;;;;;;5029841;28;20174;-73
2021/06/24 00:23:23;;;;;;;1.90;1.45;;;17.40;99.90;;;;;;5029333;28;20106;-73
2021/06/24 00:25:49;;;;;;;4.07;1.23;;;17.40;99.90;;;;;;5027884;28;20149;-73
2021/06/24 00:28:16;;;;;;;3.13;1.42;;;17.50;99.90;;;;;;5026843;28;20537;-73
2021/06/24 00:30:47;;;;;;;2.60;1.20;;;17.40;99.90;;;;;;5028977;28;20082;-73
2021/06/24 00:33:13;;;;;;;2.30;1.20;;;17.50;99.90;;;;;;5026154;28;20718;-73
2021/06/24 00:35:39;;;;;;;3.03;1.30;;;17.50;99.90;;;;;;5029009;28;20076;-73
2021/06/24 00:38:05;;;;;;;3.65;1.25;;;17.40;99.90;;;;;;5024165;28;20074;-73
2021/06/24 00:40:34;;;;;;;2.65;1.70;;;17.50;99.90;;;;;;5025188;28;20105;-72
2021/06/24 00:43:01;;;;;;;1.85;1.20;;;17.60;99.90;;;;;;5011576;28;20495;-73
2021/06/24 00:45:26;;;;;;;2.05;1.48;;;17.60;99.90;;;;;;5011927;28;20082;-73
2021/06/24 00:47:52;;;;;;;1.98;1.13;;;17.60;99.90;;;;;;5029577;28;20074;-73
2021/06/24 00:50:18;;;;;;;3.20;1.33;;;17.50;99.90;;;;;;5029379;28;20098;-73
2021/06/24 00:52:43;;;;;;;4.13;1.08;;;17.50;99.90;;;;;;5028661;28;20082;-73
2021/06/24 00:55:09;;;;;;;4.43;1.30;;;17.40;99.90;;;;;;5027833;28;20165;-74
2021/06/24 00:57:36;;;;;;;2.80;1.13;;;17.40;99.90;;;;;;5018087;28;20074;-73
2021/06/24 01:00:04;;;;;;;3.08;1.30;;;17.40;99.90;;;;;;5029304;28;20092;-73
2021/06/24 01:02:30;;;;;;;2.78;1.42;;;17.40;99.90;;;;;;5027844;28;20081;-73
2021/06/24 01:04:56;;;;;;;2.13;1.10;;;17.30;99.90;;;;;;5028394;28;20074;-73
2021/06/24 01:07:23;;;;;;;1.33;1.13;;;17.20;99.90;;;;;;5027156;28;20100;-73
2021/06/24 01:09:49;;;;;;;1.10;1.00;;;17.20;99.90;;;;;;5026900;28;20093;-73
2021/06/24 01:12:15;;;;;;;2.22;1.17;;;17.30;99.90;;;;;;5012113;28;20081;-73
2021/06/24 01:14:41;;;;;;;1.63;1.05;;;17.30;99.90;;;;;;5029128;28;20070;-73
2021/06/24 01:17:06;;;;;;;1.88;1.10;;;17.20;99.90;;;;;;5029026;28;20089;-73
2021/06/24 01:19:32;;;;;;;1.88;1.10;;;17.20;99.90;;;;;;5012132;28;20143;-73
2021/06/24 01:21:59;;;;;;;3.22;1.35;;;17.10;99.90;;;;;;5009648;28;20573;-73
2021/06/24 01:24:25;;;;;;;1.40;1.13;;;17.10;99.90;;;;;;5027639;28;20073;-73
2021/06/24 01:26:50;;;;;;;4.22;1.20;;;17.10;99.90;;;;;;5028276;28;20562;-72
2021/06/24 01:29:16;;;;;;;4.03;1.00;;;17.20;99.90;;;;;;5028247;28;20081;-73
2021/06/24 01:31:42;;;;;;;1.40;1.00;;;17.20;99.90;;;;;;5021395;28;20506;-73
2021/06/24 01:34:10;;;;;;;4.45;1.50;;;17.10;99.90;;;;;;5010856;28;20097;-73
2021/06/24 01:36:37;;;;;;;2.47;1.67;;;17.00;99.90;;;;;;5029083;28;20124;-73
2021/06/24 01:39:06;;;;;;;2.13;1.13;;;17.00;99.90;;;;;;5026039;28;20120;-73
2021/06/24 01:41:31;;;;;;;1.20;1.10;;;17.10;99.90;;;;;;5029433;28;20541;-73
2021/06/24 01:43:57;;;;;;;2.33;1.27;;;17.00;99.90;;;;;;5028088;28;20085;-73
2021/06/24 01:46:23;;;;;;;2.25;0.88;;;17.00;99.90;;;;;;5026685;28;20074;-73
2021/06/24 01:48:49;;;;;;;2.15;1.10;;;17.10;99.90;;;;;;5011671;28;20163;-73
2021/06/24 01:51:14;;;;;;;1.30;0.90;;;17.00;99.90;;;;;;5030117;28;20073;-74
2021/06/24 01:53:40;;;;;;;2.50;1.10;;;16.90;99.90;;;;;;5026762;28;20093;-73
2021/06/24 01:56:06;;;;;;;1.88;1.15;;;16.90;99.90;;;;;;5014102;28;20277;-73
2021/06/24 01:58:32;;;;;;;1.67;1.30;;;17.00;99.90;;;;;;5015189;28;20117;-74
2021/06/24 02:00:59;;;;;;;1.67;1.10;;;17.00;99.90;;;;;;5033208;28;20118;-73
2021/06/24 02:03:25;;;;;;;1.45;0.80;;;17.10;99.90;;;;;;5033781;28;20073;-73
2021/06/24 02:05:54;;;;;;;2.80;1.00;;;17.00;99.90;;;;;;5031898;28;20086;-73
2021/06/24 02:08:22;;;;;;;2.97;1.23;;;17.00;99.90;;;;;;5030845;28;20078;-73
2021/06/24 02:10:49;;;;;;;2.25;1.00;;;16.90;99.90;;;;;;5011370;28;20097;-73
2021/06/24 02:13:14;;;;;;;1.85;1.20;;;16.80;99.90;;;;;;5029478;28;20102;-73
2021/06/24 02:15:41;;;;;;;1.17;0.77;;;16.80;99.90;;;;;;5013620;28;20081;-73
2021/06/24 02:18:07;;;;;;;2.97;0.88;;;16.80;99.90;;;;;;5030133;28;20074;-73
2021/06/24 02:20:33;;;;;;;0.85;0.57;;;16.90;99.90;;;;;;5031784;28;20127;-73
2021/06/24 02:22:59;;;;;;;1.73;0.82;;;17.00;99.90;;;;;;5032786;28;20465;-73
2021/06/24 02:25:26;;;;;;;1.38;0.90;;;17.00;99.90;;;;;;5033265;28;20572;-73
2021/06/24 02:27:51;;;;;;;3.90;0.85;;;16.90;99.90;;;;;;5029795;28;20553;-73
2021/06/24 02:30:17;;;;;;;2.13;0.90;;;16.70;99.90;;;;;;5029438;28;20141;-75
2021/06/24 02:32:43;;;;;;;1.80;0.90;;;16.80;99.90;;;;;;5032289;28;20132;-74
2021/06/24 02:35:12;;;;;;;1.42;0.90;;;16.90;99.90;;;;;;5032854;28;20078;-72
2021/06/24 02:37:38;;;;;;;3.65;0.95;;;16.80;99.90;;;;;;5033252;28;20070;-75
2021/06/24 02:40:05;;;;;;;0.90;0.80;;;16.80;99.90;;;;;;5032698;28;20159;-73
2021/06/24 02:42:32;;;;;;;1.45;1.00;;;16.80;99.90;;;;;;5031987;28;20074;-74
2021/06/24 02:44:58;;;;;;;1.33;0.90;;;16.70;99.90;;;;;;5032839;28;20600;-73
2021/06/24 02:47:23;;;;;;;2.22;1.50;;;16.70;99.90;;;;;;5032362;28;20074;-74
2021/06/24 02:49:51;;;;;;;2.33;1.30;;;16.60;99.90;;;;;;5030284;28;20487;-73
2021/06/24 02:52:17;;;;;;;1.13;0.82;;;16.50;99.90;;;;;;5030943;28;20197;-73
2021/06/24 02:54:42;;;;;;;1.77;1.00;;;16.50;99.90;;;;;;5014853;28;20093;-73
2021/06/24 02:57:08;;;;;;;1.00;0.65;;;16.50;99.90;;;;;;5031601;28;20082;-73
2021/06/24 02:59:34;;;;;;;1.83;1.20;;;16.50;99.90;;;;;;5012367;28;20097;-73
2021/06/24 03:02:00;;;;;;;1.85;0.80;;;16.50;99.90;;;;;;5029321;28;20070;-73
2021/06/24 03:04:25;;;;;;;0.85;0.80;;;16.50;99.90;;;;;;5026179;28;20569;-73
2021/06/24 03:06:52;;;;;;;2.95;1.02;;;16.50;99.90;;;;;;5029391;28;20113;-73
2021/06/24 03:09:18;;;;;;;2.10;1.00;;;16.50;99.90;;;;;;5029190;28;20171;-73
2021/06/24 03:11:44;;;;;;;1.30;0.90;;;16.50;99.90;;;;;;5029293;28;20083;-73
2021/06/24 03:14:10;;;;;;;2.60;0.80;;;16.40;99.90;;;;;;5033059;28;20698;-73
2021/06/24 03:16:36;;;;;;;2.60;1.05;;;16.30;99.90;;;;;;5014012;28;20070;-73
2021/06/24 03:19:02;;;;;;;2.53;1.13;;;16.40;99.90;;;;;;5031887;28;20147;-72
2021/06/24 03:21:27;;;;;;;2.50;1.13;;;16.30;99.90;;;;;;5030830;28;20081;-73
2021/06/24 03:23:53;;;;;;;1.77;0.80;;;16.30;99.90;;;;;;5010949;28;20089;-73
2021/06/24 03:26:18;;;;;;;1.23;0.57;;;16.30;99.90;;;;;;5031392;28;20169;-73
2021/06/24 03:28:44;;;;;;;2.70;0.73;;;16.20;99.90;;;;;;5031546;28;20090;-73
2021/06/24 03:31:10;;;;;;;1.63;0.77;;;16.20;99.90;;;;;;5029835;28;20093;-73
2021/06/24 03:33:36;;;;;;;1.13;0.60;;;16.20;99.90;;;;;;5029189;28;20535;-73
2021/06/24 03:36:02;;;;;;;1.20;0.90;;;16.30;99.90;;;;;;5029538;28;20228;-73
2021/06/24 03:38:28;;;;;;;1.10;1.00;;;16.30;99.90;;;;;;5026836;28;20597;-73
2021/06/24 03:40:53;;;;;;;1.10;1.00;;;16.30;99.90;;;;;;5030445;28;20084;-73
2021/06/24 03:43:19;;;;;;;1.13;0.85;;;16.30;99.90;;;;;;5013076;28;20081;-73
2021/06/24 03:45:44;;;;;;;2.05;0.93;;;16.30;99.90;;;;;;5032006;28;20081;-73
2021/06/24 03:48:10;;;;;;;2.53;1.10;;;16.40;99.90;;;;;;5032197;28;20070;-73
2021/06/24 03:50:36;;;;;;;1.10;1.00;;;16.40;99.90;;;;;;5031199;28;20647;-73
2021/06/24 03:53:02;;;;;;;1.25;0.60;;;16.50;99.90;;;;;;5029747;28;20576;-73
2021/06/24 03:58:04;;;;;;;1.20;0.77;;;16.40;99.90;;;;;;5030832;28;20076;-73
2021/06/24 04:00:30;;;;;;;2.25;0.75;;;16.40;99.90;;;;;;5029785;28;20093;-73
2021/06/24 04:02:55;;;;;;;1.63;0.70;;;16.40;99.90;;;;;;5029789;28;20078;-73
2021/06/24 04:05:21;;;;;;;1.25;0.80;;;16.50;99.90;;;;;;5027630;28;20165;-73
2021/06/24 04:07:47;;;;;;;2.90;0.70;;;16.60;99.90;;;;;;5028565;28;20082;-73
2021/06/24 04:10:13;;;;;;;1.88;0.57;;;16.40;99.90;;;;;;5029924;28;20106;-73
2021/06/24 04:12:38;;;;;;;1.83;0.80;;;16.40;99.90;;;;;;5028199;28;20101;-73
2021/06/24 04:15:05;;;;;;;1.58;0.63;;;16.60;99.90;;;;;;5029532;28;20080;-73
2021/06/24 04:17:31;;;;;;;1.50;1.00;;;16.70;99.90;;;;;;5028357;28;20440;-73
2021/06/24 04:19:56;;;;;;;4.32;1.42;;;16.70;99.90;;;;;;5026999;28;20105;-73
2021/06/24 04:22:22;;;;;;;3.30;0.82;;;16.60;99.90;;;;;;5027571;28;20070;-74
2021/06/24 04:24:48;;;;;;;0.88;0.47;;;16.60;99.90;;;;;;5031150;28;20164;-73
2021/06/24 04:27:13;;;;;;;2.88;1.48;;;16.70;99.90;;;;;;5010822;28;20160;-73
2021/06/24 04:29:39;;;;;;;1.77;0.60;;;16.80;99.90;;;;;;5029101;28;20140;-73
2021/06/24 04:32:05;;;;;;;0.85;0.60;;;17.00;99.90;;;;;;5028136;28;20101;-73
2021/06/24 04:34:30;;;;;;;0.93;0.80;;;17.00;99.90;;;;;;5027665;28;20105;-73
2021/06/24 04:36:56;;;;;;;1.02;0.73;;;17.00;99.90;;;;;;4995721;28;20070;-73
2021/06/24 04:39:21;;;;;;;2.15;0.60;;;16.90;99.90;;;;;;5024455;28;20669;-73
2021/06/24 04:41:47;;;;;;;1.38;0.80;;;16.90;99.90;;;;;;5018914;28;20182;-72
2021/06/24 04:44:12;;;;;;;2.47;0.60;;;16.90;99.90;;;;;;5030457;28;20088;-73
2021/06/24 04:46:38;;;;;;;1.02;0.60;;;16.80;99.90;;;;;;5025950;28;20082;-74
2021/06/24 04:49:04;;;;;;;0.70;0.60;;;17.00;99.90;;;;;;5029473;28;20163;-73
2021/06/24 04:51:29;;;;;;;0.70;0.47;;;17.00;99.90;;;;;;5030290;28;20082;-73
2021/06/24 04:53:55;;;;;;;1.17;0.65;;;17.00;99.90;;;;;;5028299;28;20098;-73
2021/06/24 04:56:21;;;;;;;1.15;0.47;;;17.00;99.90;;;;;;5012815;28;20537;-74
2021/06/24 04:58:46;;;;;;;1.08;0.65;;;16.90;99.90;;;;;;5010159;28;20579;-73
2021/06/24 05:01:12;;;;;;;1.13;0.50;;;16.90;99.90;;;;;;5024786;28;20442;-73
2021/06/24 05:03:37;;;;;;;1.10;0.50;;;16.90;99.90;;;;;;5019305;28;20086;-73
2021/06/24 05:06:05;;;;;;;1.13;0.50;;;17.00;99.90;;;;;;5027667;28;20553;-73
2021/06/24 05:08:33;;;;;;;1.02;0.88;;;17.00;99.90;;;;;;5011001;28;20081;-73
2021/06/24 05:10:58;;;;;;;1.80;0.40;;;17.00;99.90;;;;;;5026417;28;20089;-76
2021/06/24 05:13:24;;;;;;;1.05;0.70;;;17.00;99.90;;;;;;5027590;28;20094;-75
2021/06/24 05:15:50;;;;;;;1.83;0.47;;;16.90;99.90;;;;;;5012134;28;20119;-73
2021/06/24 05:18:16;;;;;;;1.20;0.80;;;17.00;99.90;;;;;;5029364;28;20085;-74
2021/06/24 05:20:44;;;;;;;1.00;0.75;;;17.00;99.90;;;;;;5010244;28;20070;-73
2021/06/24 05:23:12;;;;;;;2.42;0.55;;;17.10;99.90;;;;;;5028126;28;20153;-73
2021/06/24 05:25:39;;;;;;;0.90;0.57;;;17.10;99.90;;;;;;5027919;28;20440;-73
2021/06/24 05:28:05;;;;;;;1.08;0.68;;;17.20;99.90;;;;;;5022453;28;20445;-73
2021/06/24 05:30:31;;;;;;;2.25;0.68;;;17.30;99.90;;;;;;5010930;28;20104;-74
2021/06/24 05:32:56;;;;;;;1.33;0.60;;;17.20;99.90;;;;;;5027964;28;20461;-74
2021/06/24 05:35:22;;;;;;;1.98;0.80;;;17.40;99.90;;;;;;5029987;28;20161;-74
2021/06/24 05:37:48;;;;;;;1.10;0.90;;;17.30;99.90;;;;;;5029539;28;20492;-73
2021/06/24 05:40:14;;;;;;;1.30;0.63;;;17.30;99.90;;;;;;5029806;28;20101;-74
2021/06/24 05:42:39;;;;;;;2.63;0.90;;;17.20;99.90;;;;;;5011058;28;20073;-73
2021/06/24 05:45:06;;;;;;;2.53;0.95;;;17.30;99.90;;;;;;5008522;28;21630;-75
2021/06/24 05:47:31;;;;;;;1.80;1.00;;;17.30;99.90;;;;;;5020120;28;20157;-73
2021/06/24 05:49:59;;;;;;;1.02;0.85;;;17.40;99.90;;;;;;5007027;28;20185;-75
2021/06/24 05:52:25;;;;;;;1.33;0.90;;;17.20;99.90;;;;;;5006586;28;20081;-74
2021/06/24 05:54:51;;;;;;;2.47;1.02;;;17.30;99.90;;;;;;5022333;28;20461;-75
2021/06/24 05:57:20;;;;;;;2.25;1.20;;;17.30;99.90;;;;;;5027501;28;20070;-74
2021/06/24 05:59:46;;;;;;;1.60;1.17;;;17.20;99.90;;;;;;5027365;28;20178;-74
2021/06/24 06:02:12;;;;;;;1.70;1.05;;;17.20;99.90;;;;;;5027541;28;20161;-74
2021/06/24 06:04:37;;;;;;;1.30;0.88;;;17.20;99.90;;;;;;5030407;28;20153;-75
2021/06/24 06:07:03;;;;;;;2.17;1.05;;;17.30;99.90;;;;;;5019764;28;20091;-73
2021/06/24 06:09:28;;;;;;;1.33;0.93;;;17.40;99.90;;;;;;4997456;28;20114;-73
2021/06/24 06:11:54;;;;;;;5.40;0.95;;;17.50;99.90;;;;;;5016436;28;20073;-75
2021/06/24 06:14:20;;;;;;;2.03;0.88;;;17.40;99.90;;;;;;5028506;28;20093;-74
2021/06/24 06:16:46;;;;;;;1.60;1.17;;;17.40;99.90;;;;;;5023156;28;20074;-74
2021/06/24 06:19:13;;;;;;;2.50;1.00;;;17.40;99.90;;;;;;5011222;28;20094;-76
2021/06/24 06:21:39;;;;;;;2.08;1.02;;;17.40;99.90;;;;;;5027946;28;21086;-73
2021/06/24 06:24:08;;;;;;;0.95;0.85;;;17.40;99.90;;;;;;5028568;28;20086;-75
2021/06/24 06:26:34;;;;;;;2.17;1.10;;;17.50;99.90;;;;;;5024237;28;20091;-73
2021/06/24 06:29:03;;;;;;;1.17;1.00;;;17.30;99.90;;;;;;5020773;28;20086;-75
2021/06/24 06:31:31;;;;;;;2.75;1.23;;;17.30;99.90;;;;;;5029511;28;20085;-73
2021/06/24 06:33:56;;;;;;;1.45;1.00;;;17.40;99.90;;;;;;5028183;28;20082;-73
2021/06/24 06:36:22;;;;;;;2.38;1.42;;;17.40;99.90;;;;;;5026188;28;20970;-74
2021/06/24 06:38:47;;;;;;;1.95;1.05;;;17.40;99.90;;;;;;5027407;28;20102;-73
2021/06/24 06:41:13;;;;;;;1.30;1.00;;;17.40;99.90;;;;;;5031787;28;20119;-76
2021/06/24 06:43:39;;;;;;;1.02;0.80;;;17.50;99.90;;;;;;5031748;28;20086;-74
2021/06/24 06:46:04;;;;;;;1.60;1.17;;;17.50;99.90;;;;;;5030755;28;20073;-74
2021/06/24 06:48:30;;;;;;;1.58;1.15;;;17.50;99.90;;;;;;5029283;28;20085;-75
2021/06/24 06:50:56;;;;;;;2.83;1.10;;;17.50;99.90;;;;;;5030638;28;20441;-73
2021/06/24 06:53:25;;;;;;;1.48;1.00;;;17.60;99.90;;;;;;5031900;28;20125;-75
2021/06/24 06:55:51;;;;;;;2.45;1.55;;;17.60;99.90;;;;;;5029728;28;20622;-74
2021/06/24 06:58:16;;;;;;;3.30;1.30;;;17.60;99.90;;;;;;5021841;28;20074;-74
2021/06/24 07:00:42;;;;;;;1.75;1.60;;;17.40;99.90;;;;;;5013928;28;20124;-73
2021/06/24 07:03:07;;;;;;;1.48;1.23;;;17.40;99.90;;;;;;5031862;28;20526;-73
2021/06/24 07:05:33;;;;;;;5.53;1.58;;;17.40;99.90;;;;;;5015078;28;20573;-74
2021/06/24 07:07:59;;;;;;;2.22;2.03;;;17.50;99.90;;;;;;5011999;28;20471;-74
2021/06/24 07:10:26;;;;;;;1.63;1.42;;;17.60;99.90;;;;;;5026631;28;20589;-75
2021/06/24 07:12:52;;;;;;;1.75;1.45;;;17.80;99.90;;;;;;5011964;28;20078;-74
2021/06/24 07:15:17;;;;;;;3.58;1.55;;;17.90;99.90;;;;;;5029633;28;20128;-74
2021/06/24 07:17:43;;;;;;;3.05;1.73;;;18.00;99.90;;;;;;5029887;28;20113;-74
2021/06/24 07:20:10;;;;;;;3.35;1.65;;;18.10;99.90;;;;;;5032240;28;20089;-75
2021/06/24 07:22:36;;;;;;;2.73;1.73;;;18.00;99.90;;;;;;5047736;23;20074;-72
2021/06/24 07:25:03;;;;;;;2.47;1.75;;;18.10;99.90;;;;;;5040371;28;20090;-72
2021/06/24 07:27:28;;;;;;;1.75;1.38;;;18.00;99.90;;;;;;5033697;28;20076;-72
2021/06/24 07:29:54;;;;;;;1.45;1.33;;;18.00;99.90;;;;;;5032948;28;20069;-72
2021/06/24 07:32:20;;;;;;;2.38;1.65;;;18.00;99.90;;;;;;5030783;28;20070;-72
2021/06/24 07:34:46;;;;;;;3.67;1.70;;;18.00;99.90;;;;;;5051284;28;20170;-72
2021/06/24 07:37:11;;;;;;;1.45;1.35;;;17.90;99.90;;;;;;5050910;28;20169;-72
2021/06/24 07:39:37;;;;;;;3.45;1.50;;;17.90;99.90;;;;;;5049891;28;20073;-72
2021/06/24 07:42:03;;;;;;;3.30;1.90;;;17.90;99.90;;;;;;5048533;28;20634;-72
2021/06/24 07:44:29;;;;;;;3.15;1.80;;;18.00;99.90;;;;;;5049990;28;20093;-72
2021/06/24 07:46:55;;;;;;;2.78;2.38;;;18.00;99.90;;;;;;5051208;28;20108;-72
2021/06/24 07:49:21;;;;;;;3.25;1.30;;;17.90;99.90;;;;;;5050817;28;20131;-73
2021/06/24 07:51:47;;;;;;;3.08;1.75;;;17.90;99.90;;;;;;5050525;28;20070;-72
2021/06/24 07:54:12;;;;;;;1.60;1.50;;;18.00;99.90;;;;;;5050458;28;20183;-72
2021/06/24 07:56:38;;;;;;;2.25;1.63;;;18.10;99.90;;;;;;5051604;28;20066;-72
2021/06/24 07:59:03;;;;;;;1.75;1.20;;;18.10;99.90;;;;;;5051700;28;20116;-72
2021/06/24 08:01:29;;;;;;;1.75;1.52;;;18.10;99.90;;;;;;5033918;28;20398;-72
2021/06/24 08:03:55;;;;;;;2.83;1.67;;;18.10;99.90;;;;;;5049888;28;20132;-72
2021/06/24 08:06:21;;;;;;;2.72;1.40;;;18.10;99.90;;;;;;5051004;28;20081;-72
2021/06/24 08:08:46;;;;;;;1.20;1.00;;;18.30;99.90;;;;;;5049864;28;20089;-72
2021/06/24 08:11:12;;;;;;;1.42;1.23;;;18.60;99.90;;;;;;5031462;28;20537;-72
2021/06/24 08:13:38;;;;;;;2.83;1.30;;;18.60;99.90;;;;;;5048030;28;20096;-73
2021/06/24 08:16:05;;;;;;;1.30;1.20;;;18.70;99.90;;;;;;5048501;28;20112;-73
2021/06/24 08:18:30;;;;;;;1.40;1.30;;;18.60;99.90;;;;;;5032189;28;20447;-72
2021/06/24 08:20:56;;;;;;;2.78;1.70;;;18.50;99.90;;;;;;5051054;28;20074;-72
2021/06/24 08:23:22;;;;;;;1.88;1.58;;;18.60;99.90;;;;;;5030457;28;20515;-72
2021/06/24 08:25:48;;;;;;;1.73;1.58;;;18.70;99.90;;;;;;5049592;28;20138;-73
2021/06/24 08:28:14;;;;;;;2.67;1.20;;;18.70;99.90;;;;;;5049027;28;20084;-72
2021/06/24 08:30:44;;;;;;;3.13;1.67;;;18.70;99.90;;;;;;5050068;28;20074;-73
2021/06/24 08:33:14;;;;;;;2.40;1.40;;;18.80;99.90;;;;;;5048522;28;20093;-72
2021/06/24 08:35:40;;;;;;;1.85;1.67;;;18.70;99.90;;;;;;5046904;28;20084;-72
2021/06/24 08:38:06;;;;;;;2.78;1.92;;;18.70;99.90;;;;;;5048892;28;20070;-72
2021/06/24 08:40:31;;;;;;;1.80;1.60;;;18.60;99.90;;;;;;5049802;28;20587;-72
2021/06/24 08:42:57;;;;;;;1.60;1.50;;;18.60;99.90;;;;;;5048095;28;20090;-72
2021/06/24 08:45:23;;;;;;;2.10;1.83;;;18.90;99.90;;;;;;5048106;28;20081;-73
2021/06/24 08:47:51;;;;;;;2.72;1.65;;;18.90;99.90;;;;;;5049899;28;20156;-72
2021/06/24 08:50:17;;;;;;;1.30;1.20;;;18.90;99.90;;;;;;5048010;28;20081;-72
2021/06/24 08:52:47;;;;;;;2.10;1.40;;;18.90;99.90;;;;;;5046989;28;20114;-72
2021/06/24 08:55:13;;;;;;;1.70;1.23;;;19.00;99.90;;;;;;5033999;28;20070;-73
2021/06/24 08:57:38;;;;;;;3.38;1.70;;;19.20;99.90;;;;;;5028348;28;20132;-72
2021/06/24 09:00:06;;;;;;;2.22;1.33;;;19.30;99.90;;;;;;5047074;28;20453;-73
2021/06/24 09:02:46;;;;;;;4.82;1.45;;;19.40;99.90;;;;;;5047537;28;20085;-73
2021/06/24 09:05:16;;;;;;;2.72;1.27;;;19.50;99.90;;;;;;5047726;28;20088;-73
2021/06/24 09:07:55;;;;;;;4.03;1.23;;;19.50;99.90;;;;;;5048064;28;20080;-72
2021/06/24 09:10:23;;;;;;;1.88;1.27;;;19.30;99.90;;;;;;5048592;28;20088;-73
2021/06/24 09:12:50;;;;;;;3.03;1.30;;;19.40;99.90;;;;;;5047622;28;20172;-72
2021/06/24 09:15:16;;;;;;;1.45;1.35;;;19.40;99.90;;;;;;5030206;28;20107;-73
2021/06/24 09:17:43;;;;;;;2.13;1.40;;;19.40;99.90;;;;;;5029898;28;20097;-73
2021/06/24 09:20:26;;;;;;;1.40;1.27;;;19.50;99.90;;;;;;5047004;28;20080;-72
2021/06/24 09:23:17;;;;;;;1.65;1.30;;;19.60;99.90;;;;;;5029232;28;21145;-72
2021/06/24 09:25:50;;;;;;;2.25;1.23;;;19.50;99.90;;;;;;5029402;28;20556;-72
2021/06/24 09:28:16;;;;;;;1.48;1.08;;;19.60;99.90;;;;;;5028057;28;20081;-72
2021/06/24 09:30:43;;;;;;;1.65;1.40;;;19.70;99.90;;;;;;5047305;28;20123;-72
2021/06/24 09:33:17;;;;;;;1.35;1.25;;;19.70;99.90;;;;;;5045861;28;20143;-73
2021/06/24 09:35:56;;;;;;;2.80;1.17;;;19.60;99.90;;;;;;5045813;28;20073;-73
2021/06/24 09:38:22;;;;;;;2.42;1.40;;;19.70;99.90;;;;;;5040562;28;20877;-73
2021/06/24 09:40:57;;;;;;;3.30;1.73;;;19.90;99.90;;;;;;5030917;28;20814;-72
2021/06/24 09:43:36;;;;;;;1.85;1.60;;;19.80;99.90;;;;;;5029164;28;20097;-72
2021/06/24 09:46:18;;;;;;;1.88;1.30;;;19.90;99.90;;;;;;5047626;28;20163;-73
2021/06/24 09:48:51;;;;;;;2.25;1.45;;;20.10;99.90;;;;;;5042498;28;20077;-72
2021/06/24 09:51:28;;;;;;;1.60;1.25;;;20.40;99.90;;;;;;5040576;28;20106;-73
2021/06/24 09:54:10;;;;;;;1.90;1.50;;;20.30;99.90;;;;;;5043154;28;20176;-72
2021/06/24 09:56:44;;;;;;;1.65;1.40;;;20.40;99.90;;;;;;5047668;28;20553;-77
2021/06/24 09:59:10;;;;;;;1.40;1.27;;;20.20;99.90;;;;;;5047254;28;20072;-73
2021/06/24 10:01:39;;;;;;;2.03;1.15;;;20.40;99.90;;;;;;5047233;28;20093;-72
2021/06/24 10:04:28;;;;;;;1.63;1.20;;;20.30;99.90;;;;;;5038550;28;20188;-72
2021/06/24 10:06:59;;;;;;;1.70;0.90;;;20.60;99.90;;;;;;5037078;28;20156;-72
2021/06/24 10:09:25;;;;;;;3.00;1.55;;;20.80;99.90;;;;;;5044194;28;20085;-72
2021/06/24 10:11:52;;;;;;;1.60;1.20;;;20.60;99.90;;;;;;5039307;28;20070;-72
2021/06/24 10:14:21;;;;;;;2.13;1.45;;;20.60;99.90;;;;;;5040183;28;20775;-72
2021/06/24 10:16:58;;;;;;;2.00;1.48;;;20.60;99.90;;;;;;5047751;28;20081;-72
2021/06/24 10:19:32;;;;;;;2.13;1.50;;;20.40;99.90;;;;;;5040666;28;20081;-72
2021/06/24 10:22:08;;;;;;;1.25;0.95;;;20.50;99.90;;;;;;5029470;28;20475;-72
2021/06/24 10:24:40;;;;;;;3.38;1.45;;;20.80;99.90;;;;;;5045974;28;20663;-72
2021/06/24 10:27:08;;;;;;;2.80;1.20;;;20.90;99.90;;;;;;5050981;28;20081;-72
2021/06/24 10:29:52;;;;;;;1.33;0.98;;;21.00;99.90;;;;;;5050254;28;20088;-73
2021/06/24 10:32:58;;;;;;;1.55;1.20;;;20.90;99.90;;;;;;5048465;28;20128;-72
2021/06/24 10:35:24;;;;;;;2.15;1.30;;;21.00;99.90;;;;;;5039849;28;20201;-74
2021/06/24 10:37:53;;;;;;;3.53;1.30;;;21.10;99.90;;;;;;5049747;28;20578;-77
2021/06/24 10:40:24;;;;;;;1.23;1.10;;;21.00;99.90;;;;;;5043421;28;20078;-72
2021/06/24 10:42:52;;;;;;;1.98;1.27;;;21.00;99.90;;;;;;5047502;28;20117;-74
2021/06/24 10:45:18;;;;;;;2.15;1.40;;;20.90;99.90;;;;;;5032779;28;20073;-73
2021/06/24 10:47:43;;;;;;;1.38;1.23;;;20.70;99.90;;;;;;5030795;28;20080;-72
2021/06/24 10:52:54;;;;;;;1.67;1.58;;;21.00;99.90;;;;;;5050039;28;20179;-73
2021/06/24 10:55:40;;;;;;;2.20;1.20;;;20.90;99.90;;;;;;5030229;28;20073;-72
2021/06/24 10:58:11;;;;;;;2.03;1.42;;;21.40;99.90;;;;;;5041162;28;20422;-72
2021/06/24 11:00:53;;;;;;;2.28;0.82;;;21.70;99.90;;;;;;5049612;28;20070;-72
2021/06/24 11:03:30;;;;;;;2.53;1.17;;;21.80;99.90;;;;;;5047337;28;20093;-72
2021/06/24 11:06:07;;;;;;;2.00;1.10;;;21.60;99.90;;;;;;5049111;28;20167;-72
2021/06/24 11:08:33;;;;;;;1.30;1.20;;;21.40;99.90;;;;;;5033916;28;20478;-72
2021/06/24 11:10:58;;;;;;;1.30;0.93;;;21.50;99.90;;;;;;5050188;28;20630;-72
2021/06/24 11:13:36;;;;;;;1.08;0.90;;;21.50;99.90;;;;;;5048216;28;20093;-72
2021/06/24 11:16:21;;;;;;;2.22;1.10;;;21.60;99.90;;;;;;5050050;28;20069;-72
2021/06/24 11:18:49;;;;;;;1.90;1.38;;;22.00;99.90;;;;;;5032753;28;20537;-72
2021/06/24 11:21:34;;;;;;;1.00;0.90;;;22.00;99.90;;;;;;5050486;28;20082;-72
2021/06/24 11:24:03;;;;;;;3.13;1.73;;;21.90;99.90;;;;;;5028936;28;20121;-72
2021/06/24 11:26:35;;;;;;;2.13;1.60;;;21.70;99.90;;;;;;5025770;28;20655;-72
2021/06/24 11:29:19;;;;;;;2.40;1.67;;;21.90;99.90;;;;;;5026413;28;20089;-72
2021/06/24 11:36:47;;;;;;;1.70;1.60;;;21.80;99.90;;;;;;5037628;28;20077;-72
2021/06/24 11:39:24;;;;;;;1.90;1.40;;;21.80;99.90;;;;;;5044259;28;20134;-72
2021/06/24 11:41:55;;;;;;;4.25;1.33;;;22.20;99.90;;;;;;5028184;28;20069;-73
2021/06/24 11:44:27;;;;;;;1.15;0.90;;;22.20;99.90;;;;;;5047162;28;20128;-73
2021/06/24 11:47:06;;;;;;;1.58;1.00;;;22.30;99.90;;;;;;5045693;28;20080;-73
2021/06/24 12:03:49;;;;;;;5.65;1.35;;;21.70;99.90;;;;;;5047606;28;20093;-72
2021/06/24 12:06:16;;;;;;;1.80;1.50;;;21.70;99.90;;;;;;5045707;28;20204;-72
2021/06/24 12:08:41;;;;;;;2.63;0.93;;;21.50;99.90;;;;;;5048516;28;20112;-73
2021/06/24 12:11:12;;;;;;;1.00;0.90;;;21.40;99.90;;;;;;5046178;28;20117;-73
2021/06/24 12:13:40;;;;;;;1.65;1.02;;;21.40;99.90;;;;;;5042324;28;20097;-72
2021/06/24 12:16:06;;;;;;;0.80;0.80;;;21.40;99.90;;;;;;5046762;28;20598;-73
2021/06/24 12:18:35;;;;;;;0.98;0.90;;;21.40;99.90;;;;;;5029073;28;20077;-72
2021/06/24 12:21:10;;;;;;;2.67;0.95;;;21.30;99.90;;;;;;5046885;28;20082;-73
2021/06/24 12:23:48;;;;;;;1.17;0.80;;;21.40;99.90;;;;;;5009338;28;1018202;-73
2021/06/24 12:26:15;;;;;;;1.35;1.05;;;21.20;99.90;;;;;;5046874;28;20134;-72
2021/06/24 12:28:42;;;;;;;1.73;0.98;;;21.10;99.90;;;;;;5046546;28;20078;-72
2021/06/24 12:31:22;;;;;;;1.13;1.00;;;21.10;99.90;;;;;;5047137;28;20109;-72
2021/06/24 12:33:49;;;;;;;1.10;0.85;;;21.00;99.90;;;;;;5029101;28;20100;-72
2021/06/24 12:36:29;;;;;;;1.55;1.20;;;21.00;99.90;;;;;;5046379;28;20081;-72
2021/06/24 12:38:55;;;;;;;2.63;1.40;;;20.80;99.90;;;;;;5047492;28;20079;-72
2021/06/24 12:41:20;;;;;;;0.95;0.80;;;20.80;99.90;;;;;;5042018;28;20080;-72
2021/06/24 12:43:48;;;;;;;4.00;1.38;;;20.80;99.90;;;;;;5039974;28;20136;-72
2021/06/24 12:46:13;;;;;;;2.45;0.90;;;20.70;99.90;;;;;;5045744;28;20069;-72
2021/06/24 12:48:40;;;;;;;1.65;1.00;;;20.70;99.90;;;;;;5047141;28;20564;-73
2021/06/24 12:51:16;;;;;;;2.03;1.13;;;20.70;99.90;;;;;;5029736;28;20096;-79
2021/06/24 12:53:47;;;;;;;2.05;1.40;;;20.60;99.90;;;;;;5017745;28;20472;-76
2021/06/24 12:56:27;;;;;;;1.85;1.40;;;20.50;99.90;;;;;;5048564;28;20077;-74
2021/06/24 12:59:05;;;;;;;2.40;1.55;;;20.40;99.90;;;;;;5050178;28;20224;-74
2021/06/24 13:01:36;;;;;;;1.92;1.45;;;20.40;99.90;;;;;;5027537;28;20096;-73
2021/06/24 13:04:22;;;;;;;2.58;1.50;;;20.70;99.90;;;;;;5044477;28;20147;-72
2021/06/24 13:06:53;;;;;;;2.63;1.60;;;20.60;99.90;;;;;;5046776;28;20152;-76
2021/06/24 13:09:38;;;;;;;1.75;1.58;;;20.80;99.90;;;;;;5047966;28;20078;-74
2021/06/24 13:12:08;;;;;;;2.97;1.70;;;20.90;99.90;;;;;;5048037;28;20104;-73
2021/06/24 13:14:40;;;;;;;1.67;1.58;;;20.90;99.90;;;;;;5045549;28;20193;-71
2021/06/24 13:17:12;;;;;;;3.45;1.60;;;20.90;99.90;;;;;;5045652;28;20730;-72